Time;durP1;ratioP1;P1;durP2;ratioP2;P2;SDS_P1;SDS_P2;PMS_P1;PMS_P2;Temp;Humidity;BMP_temperature;BMP_pressure;BME280_temperature;BME280_humidity;BME280_pressure;Samples;Min_cycle;Max_cycle;Signal;HPM_P1;HPM_P2
2023/03/10 00:01:12;;;;;;;24.40;13.27;;;0.70;99.90;;;;;;4954137;28;20081;-84
2023/03/10 00:03:38;;;;;;;22.75;12.88;;;0.70;99.90;;;;;;4986378;28;20050;-82
2023/03/10 00:06:05;;;;;;;22.45;12.65;;;0.70;99.90;;;;;;4965593;28;20073;-85
2023/03/10 00:08:30;;;;;;;22.67;11.63;;;0.70;99.90;;;;;;4991071;28;20048;-79
2023/03/10 00:10:56;;;;;;;21.20;11.27;;;0.80;99.90;;;;;;4972968;28;20065;-82
2023/03/10 00:13:22;;;;;;;20.30;11.73;;;0.70;99.90;;;;;;4973377;28;20047;-80
2023/03/10 00:15:48;;;;;;;19.85;11.10;;;0.70;99.90;;;;;;4990703;28;20054;-85
2023/03/10 00:18:14;;;;;;;21.63;11.52;;;0.70;99.90;;;;;;4972865;28;20046;-81
2023/03/10 00:20:40;;;;;;;21.17;11.43;;;0.70;99.90;;;;;;4990625;28;20058;-80
2023/03/10 00:23:05;;;;;;;20.67;10.55;;;0.70;99.90;;;;;;4990604;28;20038;-79
2023/03/10 00:25:31;;;;;;;21.92;12.27;;;0.70;99.90;;;;;;4990639;28;20054;-80
2023/03/10 00:27:57;;;;;;;22.90;12.82;;;0.70;99.90;;;;;;4973034;28;20065;-80
2023/03/10 00:30:22;;;;;;;23.92;12.60;;;0.70;99.90;;;;;;4990458;28;20125;-79
2023/03/10 00:32:49;;;;;;;22.67;12.32;;;0.70;99.90;;;;;;4990413;28;20489;-85
2023/03/10 00:35:15;;;;;;;22.65;12.73;;;0.70;99.90;;;;;;4972858;28;20058;-80
2023/03/10 00:37:41;;;;;;;22.00;12.90;;;0.70;99.90;;;;;;4956811;28;20104;-82
2023/03/10 00:40:11;;;;;;;24.30;13.43;;;0.70;99.90;;;;;;4956683;28;20576;-82
2023/03/10 00:42:36;;;;;;;25.30;14.18;;;0.70;99.90;;;;;;4956977;28;20085;-82
2023/03/10 00:45:02;;;;;;;22.13;13.45;;;0.70;99.90;;;;;;4973113;28;20458;-81
2023/03/10 00:47:28;;;;;;;24.40;13.00;;;0.70;99.90;;;;;;4990566;28;20129;-80
2023/03/10 00:49:54;;;;;;;25.08;14.60;;;0.70;99.90;;;;;;4956227;28;20042;-84
2023/03/10 00:52:19;;;;;;;24.88;13.68;;;0.70;99.90;;;;;;4972934;28;20375;-80
2023/03/10 00:54:45;;;;;;;26.10;14.77;;;0.70;99.90;;;;;;4990253;28;20050;-80
2023/03/10 00:57:10;;;;;;;24.88;14.00;;;0.70;99.90;;;;;;4990629;28;20049;-83
2023/03/10 00:59:36;;;;;;;24.98;14.60;;;0.70;99.90;;;;;;4972854;28;20060;-80
2023/03/10 01:02:02;;;;;;;21.38;12.50;;;1.60;99.90;;;;;;4990117;28;20149;-80
2023/03/10 01:04:27;;;;;;;25.67;14.38;;;0.70;99.90;;;;;;4990234;28;20161;-81
2023/03/10 01:06:53;;;;;;;24.42;13.43;;;0.70;99.90;;;;;;4972575;28;20084;-80
2023/03/10 01:09:18;;;;;;;23.83;13.25;;;0.70;99.90;;;;;;4990532;28;20097;-83
2023/03/10 01:11:44;;;;;;;27.13;14.57;;;0.70;99.90;;;;;;4972638;28;20046;-82
2023/03/10 01:14:13;;;;;;;25.23;14.57;;;0.80;99.90;;;;;;4956226;28;20124;-83
2023/03/10 01:16:39;;;;;;;25.45;14.85;;;0.80;99.90;;;;;;5004808;28;20050;-80
2023/03/10 01:19:05;;;;;;;30.98;16.70;;;0.80;99.90;;;;;;4989789;28;20453;-81
2023/03/10 01:21:34;;;;;;;33.15;17.30;;;0.80;99.90;;;;;;4969035;28;20043;-79
2023/03/10 01:24:00;;;;;;;30.90;17.20;;;0.80;99.90;;;;;;4970696;28;20050;-82
2023/03/10 01:26:26;;;;;;;29.23;16.30;;;1.60;99.90;;;;;;4969269;28;20055;-83
2023/03/10 01:28:52;;;;;;;32.42;18.00;;;0.80;99.90;;;;;;4970566;28;20058;-81
2023/03/10 01:31:18;;;;;;;30.08;16.38;;;0.80;99.90;;;;;;4977475;28;20490;-82
2023/03/10 01:33:44;;;;;;;30.25;16.92;;;0.80;99.90;;;;;;4972277;28;20050;-81
2023/03/10 01:36:28;;;;;;;30.48;17.60;;;0.80;99.90;;;;;;4989904;28;20084;-79
2023/03/10 01:38:55;;;;;;;29.73;17.08;;;0.90;99.90;;;;;;4989950;28;20551;-81
2023/03/10 01:41:21;;;;;;;28.00;15.73;;;0.80;99.90;;;;;;4990085;28;20129;-81
2023/03/10 01:43:52;;;;;;;26.60;14.98;;;0.90;99.90;;;;;;4972830;28;20743;-82
2023/03/10 01:46:39;;;;;;;26.70;14.75;;;0.90;99.90;;;;;;4992675;28;20093;-80
2023/03/10 01:49:27;;;;;;;21.52;12.73;;;0.90;99.90;;;;;;4993696;28;20047;-81
2023/03/10 01:51:58;;;;;;;25.10;14.20;;;0.90;99.90;;;;;;4993616;28;20422;-80
2023/03/10 01:54:29;;;;;;;21.00;12.88;;;0.90;99.90;;;;;;4993431;28;20402;-80
2023/03/10 01:56:56;;;;;;;20.58;12.00;;;0.90;99.90;;;;;;4993611;28;20398;-82
2023/03/10 01:59:24;;;;;;;21.52;12.00;;;0.90;99.90;;;;;;4993272;28;20042;-83
2023/03/10 02:01:51;;;;;;;20.75;12.45;;;0.90;99.90;;;;;;4993214;28;20113;-79
2023/03/10 02:04:23;;;;;;;19.77;11.88;;;1.00;99.90;;;;;;4993063;28;20038;-80
2023/03/10 02:06:50;;;;;;;21.10;11.65;;;1.60;99.90;;;;;;4993350;28;20489;-80
2023/03/10 02:09:17;;;;;;;17.73;10.60;;;1.00;99.90;;;;;;4993299;28;20069;-79
2023/03/10 02:11:45;;;;;;;18.85;11.25;;;1.00;99.90;;;;;;4993070;28;20070;-82
2023/03/10 02:14:11;;;;;;;19.38;9.57;;;1.00;99.90;;;;;;4993180;28;20054;-80
2023/03/10 02:16:37;;;;;;;17.30;9.65;;;1.00;99.90;;;;;;4993014;28;20077;-83
2023/03/10 02:19:07;;;;;;;17.95;10.48;;;1.00;99.90;;;;;;5007969;28;20081;-80
2023/03/10 02:21:59;;;;;;;16.90;10.38;;;1.00;99.90;;;;;;4992647;28;20054;-79
2023/03/10 02:24:27;;;;;;;16.80;9.25;;;1.00;99.90;;;;;;5007586;28;20560;-78
2023/03/10 02:27:09;;;;;;;15.95;9.35;;;1.00;99.90;;;;;;4992765;28;20070;-81
2023/03/10 02:29:42;;;;;;;15.10;9.02;;;1.00;99.90;;;;;;4975213;28;20054;-78
2023/03/10 02:32:08;;;;;;;15.85;9.48;;;1.10;99.90;;;;;;4968367;28;20114;-79
2023/03/10 02:34:34;;;;;;;17.23;9.80;;;1.00;99.90;;;;;;4973135;28;20054;-79
2023/03/10 02:37:00;;;;;;;15.93;9.35;;;1.00;99.90;;;;;;4973335;28;20073;-80
2023/03/10 02:39:25;;;;;;;17.05;10.13;;;1.10;99.90;;;;;;4973269;28;20050;-77
2023/03/10 02:41:52;;;;;;;16.48;9.15;;;1.10;99.90;;;;;;4952061;29;20055;-79
2023/03/10 02:44:20;;;;;;;18.13;10.00;;;1.10;99.90;;;;;;4953865;29;20794;-80
2023/03/10 02:46:46;;;;;;;16.48;8.60;;;1.00;99.90;;;;;;4953724;29;20102;-82
2023/03/10 02:49:12;;;;;;;16.98;9.50;;;1.10;99.90;;;;;;4954053;29;20046;-78
2023/03/10 02:51:40;;;;;;;16.65;9.15;;;1.10;99.90;;;;;;4953794;28;20058;-80
2023/03/10 02:54:08;;;;;;;15.02;8.88;;;1.10;99.90;;;;;;4953771;29;20176;-78
2023/03/10 02:56:34;;;;;;;16.42;9.15;;;1.10;99.90;;;;;;4967794;28;20541;-79
2023/03/10 02:59:01;;;;;;;19.00;9.85;;;1.10;99.90;;;;;;4953484;28;20047;-81
2023/03/10 03:01:29;;;;;;;18.20;10.20;;;1.10;99.90;;;;;;4977454;28;20058;-83
2023/03/10 03:03:55;;;;;;;19.88;10.55;;;1.10;99.90;;;;;;4954440;28;20177;-79
2023/03/10 03:06:20;;;;;;;20.25;11.35;;;1.10;99.90;;;;;;4972720;28;20470;-79
2023/03/10 03:08:46;;;;;;;20.35;10.95;;;1.00;99.90;;;;;;4972830;28;20050;-78
2023/03/10 03:11:12;;;;;;;20.30;11.48;;;1.10;99.90;;;;;;4955817;28;20047;-79
2023/03/10 03:13:38;;;;;;;21.33;10.80;;;1.00;99.90;;;;;;4954925;28;20047;-80
2023/03/10 03:16:06;;;;;;;20.58;11.77;;;1.00;99.90;;;;;;4954372;28;20469;-79
2023/03/10 03:18:32;;;;;;;22.02;11.88;;;1.00;99.90;;;;;;4972381;28;20054;-81
2023/03/10 03:20:58;;;;;;;21.42;11.57;;;1.00;99.90;;;;;;4971885;28;20135;-78
2023/03/10 03:23:23;;;;;;;20.48;12.13;;;1.00;99.90;;;;;;4972016;28;20063;-83
2023/03/10 03:25:49;;;;;;;20.02;11.73;;;1.20;99.90;;;;;;4971743;28;20047;-79
2023/03/10 03:28:14;;;;;;;21.55;11.98;;;1.00;99.90;;;;;;4982109;28;20122;-78
2023/03/10 03:30:42;;;;;;;20.60;11.52;;;1.00;99.90;;;;;;4974082;28;20074;-79
2023/03/10 03:33:08;;;;;;;20.48;11.85;;;1.00;99.90;;;;;;4991295;28;20054;-82
2023/03/10 03:35:36;;;;;;;20.88;12.07;;;1.00;99.90;;;;;;4973858;28;20722;-83
2023/03/10 03:38:02;;;;;;;22.70;13.30;;;1.00;99.90;;;;;;4991212;28;20510;-80
2023/03/10 03:40:32;;;;;;;23.65;13.57;;;1.00;99.90;;;;;;4973179;28;20100;-78
2023/03/10 03:42:58;;;;;;;23.52;13.43;;;0.90;99.90;;;;;;4991409;28;20046;-79
2023/03/10 03:45:26;;;;;;;22.52;13.13;;;1.00;99.90;;;;;;4991173;28;20058;-80
2023/03/10 03:47:52;;;;;;;25.40;13.70;;;0.90;99.90;;;;;;4991038;28;20034;-82
2023/03/10 03:50:19;;;;;;;23.58;13.68;;;0.90;99.90;;;;;;4973868;28;20050;-79
2023/03/10 03:52:45;;;;;;;23.70;14.15;;;0.90;99.90;;;;;;4973375;28;20405;-81
2023/03/10 03:55:13;;;;;;;23.70;13.00;;;0.90;99.90;;;;;;4990940;28;20077;-79
2023/03/10 03:57:40;;;;;;;28.95;15.57;;;0.90;99.90;;;;;;4991156;28;20697;-79
2023/03/10 04:00:08;;;;;;;25.55;14.85;;;0.90;99.90;;;;;;4973369;28;20054;-79
2023/03/10 04:02:34;;;;;;;27.05;14.25;;;0.90;99.90;;;;;;4990589;28;20097;-77
2023/03/10 04:05:00;;;;;;;28.10;15.52;;;1.40;99.90;;;;;;4972716;28;20117;-82
2023/03/10 04:07:26;;;;;;;27.00;15.15;;;1.80;99.90;;;;;;4990639;28;20074;-80
2023/03/10 04:09:52;;;;;;;29.67;15.45;;;0.90;99.90;;;;;;4990696;28;20046;-79
2023/03/10 04:12:17;;;;;;;26.42;15.25;;;0.90;99.90;;;;;;4974037;28;20669;-79
2023/03/10 04:14:43;;;;;;;29.63;16.42;;;0.90;99.90;;;;;;4990839;28;20054;-79
2023/03/10 04:17:09;;;;;;;28.10;15.90;;;0.90;99.90;;;;;;4990395;28;20042;-79
2023/03/10 04:19:35;;;;;;;28.95;15.68;;;0.90;99.90;;;;;;4990529;28;20410;-79
2023/03/10 04:22:01;;;;;;;28.83;15.98;;;0.80;99.90;;;;;;4990389;28;20080;-81
2023/03/10 04:24:26;;;;;;;26.98;15.43;;;0.90;99.90;;;;;;4973108;28;20057;-80
2023/03/10 04:26:52;;;;;;;27.52;15.25;;;0.80;99.90;;;;;;4976803;28;20041;-80
2023/03/10 04:29:18;;;;;;;29.75;17.00;;;0.80;99.90;;;;;;5010136;28;20417;-80
2023/03/10 04:31:43;;;;;;;24.65;14.57;;;0.80;99.90;;;;;;5010181;28;20125;-79
2023/03/10 04:34:09;;;;;;;26.80;15.00;;;0.80;99.90;;;;;;4977704;28;20490;-79
2023/03/10 04:36:35;;;;;;;28.55;16.10;;;0.80;99.90;;;;;;4990311;28;20042;-80
2023/03/10 04:39:01;;;;;;;31.75;15.65;;;0.80;99.90;;;;;;4990253;28;20089;-79
2023/03/10 04:41:26;;;;;;;30.15;15.95;;;0.80;99.90;;;;;;4990590;28;20046;-80
2023/03/10 04:43:52;;;;;;;28.15;15.63;;;0.80;99.90;;;;;;4990616;28;20417;-81
2023/03/10 04:46:17;;;;;;;27.88;15.70;;;0.70;99.90;;;;;;4957001;28;20473;-80
2023/03/10 04:48:43;;;;;;;26.30;15.75;;;0.70;99.90;;;;;;4990326;28;20046;-78
2023/03/10 04:51:11;;;;;;;31.40;16.45;;;0.70;99.90;;;;;;4990313;28;20038;-82
2023/03/10 04:53:38;;;;;;;28.85;16.30;;;0.70;99.90;;;;;;4972410;28;20054;-82
2023/03/10 04:56:06;;;;;;;28.25;15.93;;;0.70;99.90;;;;;;4989996;28;20123;-78
2023/03/10 04:58:33;;;;;;;27.90;15.48;;;0.70;99.90;;;;;;4990319;28;20065;-78
2023/03/10 05:00:59;;;;;;;36.55;17.85;;;0.60;99.90;;;;;;4990476;28;20552;-80
2023/03/10 05:03:25;;;;;;;33.35;16.58;;;0.60;99.90;;;;;;4972705;28;20082;-80
2023/03/10 05:05:51;;;;;;;29.77;15.82;;;0.60;99.90;;;;;;4990236;28;20049;-81
2023/03/10 05:08:16;;;;;;;30.67;16.55;;;0.60;99.90;;;;;;4972693;28;20154;-79
2023/03/10 05:10:43;;;;;;;31.75;16.73;;;0.70;99.90;;;;;;4972803;28;20498;-80
2023/03/10 05:13:11;;;;;;;29.92;16.20;;;0.60;99.90;;;;;;4952189;28;20112;-79
2023/03/10 05:15:40;;;;;;;32.63;18.17;;;0.60;99.90;;;;;;4970543;28;20054;-80
2023/03/10 05:18:08;;;;;;;33.70;17.08;;;0.60;99.90;;;;;;4953159;28;20051;-84
2023/03/10 05:20:33;;;;;;;32.83;17.33;;;0.60;99.90;;;;;;4980672;28;20057;-81
2023/03/10 05:22:59;;;;;;;37.50;18.42;;;0.60;99.90;;;;;;4993196;28;20050;-80
2023/03/10 05:25:24;;;;;;;37.40;19.98;;;0.60;99.90;;;;;;4993701;28;20145;-82
2023/03/10 05:27:50;;;;;;;39.28;19.70;;;0.60;99.90;;;;;;4993554;28;20062;-82
2023/03/10 05:30:16;;;;;;;36.78;18.63;;;0.60;99.90;;;;;;4993831;28;20100;-83
2023/03/10 05:32:43;;;;;;;39.10;19.95;;;0.60;99.90;;;;;;4976232;28;20398;-81
2023/03/10 05:35:09;;;;;;;37.55;20.27;;;0.60;99.90;;;;;;4993547;28;20567;-84
2023/03/10 05:37:38;;;;;;;38.95;19.48;;;0.60;99.90;;;;;;4976542;28;20402;-81
2023/03/10 05:40:09;;;;;;;43.45;20.65;;;0.60;99.90;;;;;;4993602;28;20142;-82
2023/03/10 05:42:34;;;;;;;42.58;21.52;;;0.60;99.90;;;;;;4993843;28;20065;-84
2023/03/10 05:45:00;;;;;;;43.97;21.45;;;0.60;99.90;;;;;;4975851;28;20488;-81
2023/03/10 05:47:26;;;;;;;46.95;22.88;;;0.60;99.90;;;;;;4993607;28;20050;-82
2023/03/10 05:49:52;;;;;;;48.65;23.10;;;0.60;99.90;;;;;;4993660;28;20094;-80
2023/03/10 05:52:17;;;;;;;49.13;24.70;;;0.50;99.90;;;;;;4975803;28;20041;-82
2023/03/10 05:54:43;;;;;;;46.83;24.10;;;0.50;99.90;;;;;;4993084;28;20133;-79
2023/03/10 05:57:09;;;;;;;50.30;23.85;;;0.50;99.90;;;;;;4975972;28;20058;-81
2023/03/10 05:59:34;;;;;;;45.45;23.90;;;0.50;99.90;;;;;;4975758;28;20042;-80
2023/03/10 06:02:00;;;;;;;56.70;25.55;;;0.50;99.90;;;;;;4992885;28;20058;-78
2023/03/10 06:04:32;;;;;;;49.30;23.92;;;0.50;99.90;;;;;;4975835;28;20054;-81
2023/03/10 06:06:59;;;;;;;51.13;24.60;;;0.50;99.90;;;;;;4993278;28;20054;-80
2023/03/10 06:09:26;;;;;;;51.28;23.60;;;0.50;99.90;;;;;;4993037;28;20074;-82
2023/03/10 06:11:51;;;;;;;53.10;24.42;;;0.50;99.90;;;;;;4992896;28;20054;-80
2023/03/10 06:14:17;;;;;;;48.83;23.95;;;0.50;99.90;;;;;;4993019;28;20058;-80
2023/03/10 06:16:49;;;;;;;50.00;24.40;;;0.50;99.90;;;;;;4958513;28;20060;-82
2023/03/10 06:19:18;;;;;;;47.03;22.35;;;0.50;99.90;;;;;;4992929;28;20082;-80
2023/03/10 06:21:44;;;;;;;46.90;21.33;;;0.50;99.90;;;;;;4975323;28;20065;-81
2023/03/10 06:24:10;;;;;;;44.15;21.85;;;0.50;99.90;;;;;;4992732;28;20216;-80
2023/03/10 06:26:36;;;;;;;44.15;20.05;;;0.50;99.90;;;;;;4992764;28;20042;-80
2023/03/10 06:29:03;;;;;;;39.65;20.58;;;0.50;99.90;;;;;;4992229;28;20089;-79
2023/03/10 06:31:30;;;;;;;43.35;20.33;;;0.50;99.90;;;;;;4992420;28;20137;-80
2023/03/10 06:33:56;;;;;;;40.85;19.08;;;1.20;99.90;;;;;;4992931;28;20573;-82
2023/03/10 06:36:22;;;;;;;35.63;18.05;;;0.50;99.90;;;;;;4992697;28;20073;-81
2023/03/10 06:38:48;;;;;;;32.45;17.45;;;0.50;99.90;;;;;;4992847;28;20520;-82
2023/03/10 06:41:15;;;;;;;30.77;16.88;;;0.50;99.90;;;;;;4992266;28;20039;-80
2023/03/10 06:43:41;;;;;;;32.55;16.63;;;0.50;99.90;;;;;;4992260;28;20561;-84
2023/03/10 06:46:09;;;;;;;31.17;16.13;;;0.50;99.90;;;;;;4992531;28;20121;-81
2023/03/10 06:48:35;;;;;;;28.45;15.70;;;0.50;99.90;;;;;;4992363;28;20046;-83
2023/03/10 06:51:04;;;;;;;32.05;16.00;;;0.50;99.90;;;;;;4974906;28;20046;-83
2023/03/10 06:53:29;;;;;;;30.60;15.52;;;0.50;99.90;;;;;;4992379;28;20046;-83
2023/03/10 06:56:17;;;;;;;28.60;15.75;;;1.00;99.90;;;;;;4974469;28;20117;-83
2023/03/10 06:58:43;;;;;;;28.30;14.48;;;0.50;99.90;;;;;;4991645;28;20042;-82
2023/03/10 07:01:39;;;;;;;27.60;14.45;;;0.80;99.90;;;;;;4992127;28;20058;-84
2023/03/10 07:04:04;;;;;;;27.50;14.18;;;0.60;99.90;;;;;;4991614;28;20062;-82
2023/03/10 07:06:30;;;;;;;26.67;13.77;;;0.60;99.90;;;;;;4992594;28;20109;-82
2023/03/10 07:08:56;;;;;;;28.33;14.85;;;0.60;99.90;;;;;;4974539;28;20096;-82
2023/03/10 07:11:23;;;;;;;28.63;14.43;;;0.60;99.90;;;;;;4991729;28;20050;-82
2023/03/10 07:13:48;;;;;;;24.45;13.18;;;0.60;99.90;;;;;;5001119;28;20082;-80
2023/03/10 07:16:15;;;;;;;25.23;13.18;;;0.60;99.90;;;;;;4992097;28;20161;-85
2023/03/10 07:18:41;;;;;;;25.38;13.82;;;0.60;99.90;;;;;;4992099;28;20050;-82
2023/03/10 07:21:09;;;;;;;25.13;13.63;;;0.60;99.90;;;;;;4974058;28;20112;-83
2023/03/10 07:23:35;;;;;;;27.88;14.80;;;0.70;99.90;;;;;;4974213;28;20046;-85
2023/03/10 07:26:00;;;;;;;25.27;13.38;;;0.70;99.90;;;;;;4991086;28;20093;-81
2023/03/10 07:28:27;;;;;;;28.10;14.60;;;0.70;99.90;;;;;;4991252;28;20094;-86
2023/03/10 07:30:55;;;;;;;27.48;14.35;;;0.60;99.90;;;;;;4974012;28;20082;-83
2023/03/10 07:33:21;;;;;;;27.13;14.40;;;0.70;99.90;;;;;;4991732;28;20093;-82
2023/03/10 07:35:47;;;;;;;25.95;13.73;;;0.70;99.90;;;;;;4991656;28;20081;-81
2023/03/10 07:38:12;;;;;;;25.98;13.68;;;0.70;99.90;;;;;;4990928;28;20040;-84
2023/03/10 07:40:39;;;;;;;30.52;15.63;;;0.70;99.90;;;;;;4991173;28;20046;-83
2023/03/10 07:43:05;;;;;;;30.95;15.27;;;0.70;99.90;;;;;;4990108;28;20053;-82
2023/03/10 07:45:32;;;;;;;28.98;15.60;;;1.50;99.90;;;;;;4958326;28;20066;-83
2023/03/10 07:47:58;;;;;;;31.23;15.93;;;0.70;99.90;;;;;;4992712;28;20038;-84
2023/03/10 07:50:24;;;;;;;28.38;14.60;;;0.70;99.90;;;;;;4992313;28;20129;-83
2023/03/10 07:52:50;;;;;;;29.08;15.65;;;0.70;99.90;;;;;;4991313;28;20042;-83
2023/03/10 07:55:17;;;;;;;31.80;14.75;;;0.80;99.90;;;;;;4973691;28;20073;-83
2023/03/10 07:57:42;;;;;;;27.30;15.20;;;0.80;99.90;;;;;;4973508;28;20133;-85
2023/03/10 08:00:10;;;;;;;27.77;15.20;;;0.80;99.90;;;;;;4991054;28;20130;-83
2023/03/10 08:02:35;;;;;;;29.83;15.55;;;0.10;99.90;;;;;;4973722;28;20049;-83
2023/03/10 08:05:01;;;;;;;30.63;16.08;;;1.60;99.90;;;;;;4990197;28;20129;-82
2023/03/10 08:07:26;;;;;;;33.20;17.05;;;0.80;99.90;;;;;;4989864;28;20046;-85
2023/03/10 08:09:53;;;;;;;28.52;15.40;;;0.80;99.90;;;;;;4973231;28;20481;-83
2023/03/10 08:12:20;;;;;;;34.00;16.98;;;1.20;99.90;;;;;;4991161;28;20042;-84
2023/03/10 08:14:46;;;;;;;33.25;17.63;;;0.80;99.90;;;;;;4990922;28;20121;-85
2023/03/10 08:17:12;;;;;;;33.50;17.60;;;0.80;99.90;;;;;;4957165;28;20114;-83
2023/03/10 08:19:38;;;;;;;33.03;17.35;;;0.80;99.90;;;;;;4991203;28;20078;-84
2023/03/10 08:22:04;;;;;;;33.85;17.77;;;2.10;99.90;;;;;;4990352;28;20104;-83
2023/03/10 08:24:30;;;;;;;34.17;17.45;;;0.90;99.90;;;;;;4990363;28;20061;-83
2023/03/10 08:26:56;;;;;;;30.48;16.75;;;0.90;99.90;;;;;;4990453;28;20053;-84
2023/03/10 08:29:22;;;;;;;33.85;17.13;;;0.80;99.90;;;;;;4973848;28;20069;-82
2023/03/10 08:31:48;;;;;;;31.48;17.15;;;0.90;99.90;;;;;;4991047;28;20125;-85
2023/03/10 08:34:14;;;;;;;30.10;16.38;;;0.90;99.90;;;;;;4990324;28;20125;-83
2023/03/10 08:36:40;;;;;;;30.63;16.55;;;0.90;99.90;;;;;;4990772;28;20117;-82
2023/03/10 08:39:07;;;;;;;31.80;16.75;;;0.90;99.90;;;;;;4990715;28;20042;-85
2023/03/10 08:41:36;;;;;;;31.27;17.52;;;0.90;99.90;;;;;;4972723;28;20062;-82
2023/03/10 08:44:03;;;;;;;31.45;16.67;;;0.90;99.90;;;;;;4971731;28;20104;-81
2023/03/10 08:46:30;;;;;;;30.95;16.02;;;0.90;99.90;;;;;;4973046;28;20050;-83
2023/03/10 08:48:57;;;;;;;31.23;17.08;;;1.00;99.90;;;;;;4990879;28;20042;-81
2023/03/10 08:51:23;;;;;;;32.33;17.20;;;0.90;99.90;;;;;;4990348;28;20450;-83
2023/03/10 08:53:50;;;;;;;31.23;16.60;;;0.90;99.90;;;;;;4972051;28;20057;-81
2023/03/10 08:56:18;;;;;;;38.30;18.50;;;0.90;99.90;;;;;;4979104;28;20109;-81
2023/03/10 08:58:44;;;;;;;33.88;16.83;;;0.90;99.90;;;;;;4990307;28;20046;-81
2023/03/10 09:01:10;;;;;;;35.60;18.02;;;0.90;99.90;;;;;;4990297;28;20066;-81
2023/03/10 09:03:42;;;;;;;30.48;15.57;;;0.90;99.90;;;;;;4989910;28;20066;-79
2023/03/10 09:06:08;;;;;;;35.53;17.98;;;0.90;99.90;;;;;;4972804;28;20054;-77
2023/03/10 09:08:34;;;;;;;33.00;17.35;;;0.90;99.90;;;;;;4973143;28;20061;-79
2023/03/10 09:11:00;;;;;;;33.00;16.90;;;0.90;99.90;;;;;;4973011;28;20157;-78
2023/03/10 09:13:26;;;;;;;31.95;16.40;;;1.60;99.90;;;;;;4972492;28;20050;-80
2023/03/10 09:15:51;;;;;;;33.40;16.70;;;0.90;99.90;;;;;;5005358;28;20099;-81
2023/03/10 09:18:18;;;;;;;32.58;17.73;;;0.90;99.90;;;;;;4989847;28;20057;-80
2023/03/10 09:20:45;;;;;;;31.05;17.42;;;1.00;99.90;;;;;;4990356;28;20042;-82
2023/03/10 09:23:13;;;;;;;36.38;17.55;;;1.00;99.90;;;;;;4973271;28;20054;-81
2023/03/10 09:25:41;;;;;;;34.05;17.30;;;1.00;99.90;;;;;;4972938;28;20051;-81
2023/03/10 09:28:08;;;;;;;30.52;16.33;;;1.00;99.90;;;;;;4989602;28;20066;-82
2023/03/10 09:30:38;;;;;;;31.92;17.00;;;1.00;99.90;;;;;;4972903;28;20379;-82
2023/03/10 09:33:05;;;;;;;29.42;16.17;;;1.00;99.90;;;;;;4990121;28;20039;-80
2023/03/10 09:35:31;;;;;;;29.95;16.90;;;1.20;99.90;;;;;;4990229;28;20397;-79
2023/03/10 09:37:57;;;;;;;30.38;15.70;;;1.10;99.90;;;;;;4990208;28;20123;-84
2023/03/10 09:40:23;;;;;;;29.75;15.90;;;1.10;99.90;;;;;;4990152;28;20463;-81
2023/03/10 09:43:04;;;;;;;28.70;15.52;;;2.00;99.90;;;;;;4989723;28;20042;-79
2023/03/10 09:45:50;;;;;;;28.95;15.63;;;1.10;99.90;;;;;;4990345;28;20062;-81
2023/03/10 09:48:27;;;;;;;28.05;14.88;;;1.10;99.90;;;;;;4989154;28;20544;-82
2023/03/10 09:50:55;;;;;;;30.50;17.33;;;1.10;99.90;;;;;;4990055;28;20057;-81
2023/03/10 09:53:39;;;;;;;30.23;16.70;;;1.10;99.90;;;;;;4971997;28;20073;-76
2023/03/10 09:56:15;;;;;;;30.20;15.77;;;1.10;99.90;;;;;;4972239;28;20065;-79
2023/03/10 09:58:45;;;;;;;27.90;15.77;;;1.00;99.90;;;;;;4989802;28;20066;-80
2023/03/10 10:01:17;;;;;;;29.23;15.82;;;1.10;99.90;;;;;;4990094;28;20062;-79
2023/03/10 10:03:51;;;;;;;29.67;15.48;;;1.70;99.90;;;;;;4990358;28;20046;-79
2023/03/10 10:06:27;;;;;;;27.63;15.93;;;1.00;99.90;;;;;;4991185;28;20118;-76
2023/03/10 10:08:54;;;;;;;30.75;14.85;;;1.10;99.90;;;;;;4975466;28;20062;-79
2023/03/10 10:11:20;;;;;;;29.65;15.35;;;1.10;99.90;;;;;;4993445;28;20038;-78
2023/03/10 10:13:46;;;;;;;30.83;15.60;;;1.10;99.90;;;;;;4975271;28;20058;-78
2023/03/10 10:16:39;;;;;;;27.40;14.48;;;1.10;99.90;;;;;;4993024;28;20042;-80
2023/03/10 10:19:21;;;;;;;28.75;15.93;;;1.00;99.90;;;;;;4992688;28;20053;-77
2023/03/10 10:22:06;;;;;;;28.95;15.52;;;1.10;99.90;;;;;;4972691;28;20050;-81
2023/03/10 10:24:31;;;;;;;28.38;15.13;;;1.10;99.90;;;;;;4993112;28;20128;-80
2023/03/10 10:26:57;;;;;;;29.40;15.40;;;1.10;99.90;;;;;;4975712;28;20122;-81
2023/03/10 10:29:33;;;;;;;31.30;15.00;;;1.00;99.90;;;;;;4992376;28;20054;-80
2023/03/10 10:32:07;;;;;;;30.10;14.73;;;2.20;99.90;;;;;;4993197;28;20065;-79
2023/03/10 10:34:34;;;;;;;28.00;14.63;;;1.00;99.90;;;;;;4992785;28;20057;-79
2023/03/10 10:37:00;;;;;;;29.42;14.75;;;1.00;99.90;;;;;;4992947;28;20046;-81
2023/03/10 10:39:31;;;;;;;29.23;15.45;;;1.00;99.90;;;;;;4975074;28;20512;-77
2023/03/10 10:42:19;;;;;;;27.05;14.30;;;1.00;99.90;;;;;;4973885;28;20038;-75
2023/03/10 10:44:45;;;;;;;27.17;15.20;;;1.00;99.90;;;;;;4992636;28;20049;-77
2023/03/10 10:47:48;;;;;;;26.98;14.00;;;1.00;99.90;;;;;;4992687;28;20042;-78
2023/03/10 10:50:21;;;;;;;29.30;15.05;;;1.00;99.90;;;;;;4887502;29;20504;-79
2023/03/10 10:52:50;;;;;;;29.55;14.43;;;1.60;99.90;;;;;;4912612;29;20048;-78
2023/03/10 10:55:33;;;;;;;27.63;14.38;;;1.00;99.90;;;;;;4912828;29;20064;-77
2023/03/10 10:58:22;;;;;;;30.80;16.13;;;1.00;99.90;;;;;;4912283;29;20512;-77
2023/03/10 11:00:55;;;;;;;30.45;15.23;;;1.00;99.90;;;;;;4912223;29;20111;-78
2023/03/10 11:03:27;;;;;;;30.30;15.77;;;1.00;99.90;;;;;;4897206;29;20135;-79
2023/03/10 11:05:53;;;;;;;32.05;16.17;;;1.00;99.90;;;;;;4912926;29;20097;-78
2023/03/10 11:08:38;;;;;;;30.98;16.50;;;1.00;99.90;;;;;;4896775;29;20098;-78
2023/03/10 11:11:19;;;;;;;29.43;15.60;;;1.00;99.90;;;;;;4885542;29;20052;-77
2023/03/10 11:13:55;;;;;;;26.90;14.52;;;1.00;99.90;;;;;;4912699;29;20119;-78
2023/03/10 11:16:39;;;;;;;29.13;15.80;;;1.00;99.90;;;;;;4896070;29;20095;-81
2023/03/10 11:19:59;;;;;;;29.65;15.35;;;1.00;99.90;;;;;;4912179;29;20269;-77
2023/03/10 11:22:51;;;;;;;28.17;14.27;;;1.10;99.90;;;;;;4889285;29;20064;-78
2023/03/10 11:25:37;;;;;;;31.23;15.77;;;1.00;99.90;;;;;;4903146;29;20188;-79
2023/03/10 11:28:05;;;;;;;;;;;1.90;99.90;;;;;;4990463;28;20058;-79
2023/03/10 11:30:32;;;;;;;29.65;15.95;;;1.00;99.90;;;;;;5011046;28;20385;-80
2023/03/10 11:33:26;;;;;;;29.35;15.35;;;1.00;99.90;;;;;;5011608;28;20124;-79
2023/03/10 11:36:04;;;;;;;27.35;15.40;;;1.00;99.90;;;;;;5011565;28;20711;-78
2023/03/10 11:38:41;;;;;;;24.17;14.40;;;1.00;99.90;;;;;;5001982;28;20042;-77
2023/03/10 11:41:06;;;;;;;29.42;16.60;;;1.00;99.90;;;;;;4974448;28;20046;-79
2023/03/10 11:43:59;;;;;;;29.92;15.93;;;1.10;99.90;;;;;;4974606;28;20404;-79
2023/03/10 11:46:57;;;;;;;31.98;15.68;;;1.00;99.90;;;;;;4991554;28;20127;-78
2023/03/10 11:49:27;;;;;;;29.70;15.68;;;1.10;99.90;;;;;;4958837;28;20094;-78
2023/03/10 11:51:59;;;;;;;30.83;16.67;;;1.10;99.90;;;;;;4958575;28;20417;-78
2023/03/10 11:54:37;;;;;;;28.27;15.57;;;1.10;99.90;;;;;;4973925;28;20046;-80
2023/03/10 11:57:09;;;;;;;26.98;15.50;;;1.10;99.90;;;;;;4991011;28;20046;-80
2023/03/10 11:59:45;;;;;;;31.52;16.02;;;1.10;99.90;;;;;;4991205;28;20038;-78
2023/03/10 12:02:23;;;;;;;30.35;16.23;;;1.10;99.90;;;;;;4973954;28;20141;-79
2023/03/10 12:04:58;;;;;;;31.27;14.52;;;1.10;99.90;;;;;;4973039;28;20054;-78
2023/03/10 12:07:32;;;;;;;29.85;15.55;;;1.10;99.90;;;;;;4991200;28;20505;-78
2023/03/10 12:10:24;;;;;;;32.30;16.55;;;1.10;99.90;;;;;;4973865;28;20046;-78
2023/03/10 12:12:55;;;;;;;30.92;15.95;;;1.20;99.90;;;;;;4968436;28;20071;-78
2023/03/10 12:15:34;;;;;;;27.58;15.57;;;1.20;99.90;;;;;;4991269;28;20064;-79
2023/03/10 12:18:08;;;;;;;31.73;16.52;;;1.90;99.90;;;;;;4990717;28;20513;-80
2023/03/10 12:20:35;;;;;;;28.05;15.38;;;1.10;99.90;;;;;;4972892;28;20046;-75
2023/03/10 12:23:10;;;;;;;29.20;15.50;;;1.20;99.90;;;;;;4975779;28;20141;-77
2023/03/10 12:25:37;;;;;;;31.50;15.68;;;1.20;99.90;;;;;;4991230;28;20685;-79
2023/03/10 12:28:27;;;;;;;32.40;16.15;;;1.20;99.90;;;;;;4984484;28;20087;-78
2023/03/10 12:30:56;;;;;;;27.30;15.30;;;1.20;99.90;;;;;;4894041;29;20052;-78
2023/03/10 12:33:32;;;;;;;28.42;15.23;;;1.30;99.90;;;;;;4909033;29;20756;-79
2023/03/10 12:36:30;;;;;;;31.50;16.25;;;1.20;99.90;;;;;;4911417;29;20071;-78
2023/03/10 12:39:00;;;;;;;26.70;14.77;;;1.30;99.90;;;;;;4911410;29;20081;-78
2023/03/10 12:41:26;;;;;;;30.15;16.13;;;1.30;99.90;;;;;;4911241;29;20787;-78
2023/03/10 12:43:59;;;;;;;28.70;15.40;;;1.30;99.90;;;;;;4911301;29;20143;-78
2023/03/10 12:46:42;;;;;;;28.02;15.55;;;1.40;99.90;;;;;;4911035;29;20453;-79
2023/03/10 12:49:25;;;;;;;28.25;15.02;;;1.40;99.90;;;;;;4911144;29;20056;-78